sensor_id;sensor_type;location;lat;lon;timestamp;P1;durP1;ratioP1;P2;durP2;ratioP2
69912;SDS011;57198;52.082;5.108;2023-11-19T00:01:47;11.00;;;3.93;;
69912;SDS011;57198;52.082;5.108;2023-11-19T00:04:17;16.70;;;4.80;;
69912;SDS011;57198;52.082;5.108;2023-11-19T00:06:50;15.35;;;3.90;;
69912;SDS011;57198;52.082;5.108;2023-11-19T00:09:34;14.23;;;4.15;;
69912;SDS011;57198;52.082;5.108;2023-11-19T00:12:14;13.40;;;4.15;;
69912;SDS011;57198;52.082;5.108;2023-11-19T00:14:55;15.57;;;4.00;;
69912;SDS011;57198;52.082;5.108;2023-11-19T00:17:32;18.40;;;4.35;;
69912;SDS011;57198;52.082;5.108;2023-11-19T00:20:07;16.33;;;3.72;;
69912;SDS011;57198;52.082;5.108;2023-11-19T00:22:43;21.20;;;3.53;;
69912;SDS011;57198;52.082;5.108;2023-11-19T00:25:25;20.67;;;4.47;;
69912;SDS011;57198;52.082;5.108;2023-11-19T00:27:55;20.53;;;3.53;;
69912;SDS011;57198;52.082;5.108;2023-11-19T00:30:43;20.27;;;4.40;;
69912;SDS011;57198;52.082;5.108;2023-11-19T00:33:23;22.20;;;3.67;;
69912;SDS011;57198;52.082;5.108;2023-11-19T00:36:00;13.77;;;3.45;;
69912;SDS011;57198;52.082;5.108;2023-11-19T00:38:40;18.92;;;4.00;;
69912;SDS011;57198;52.082;5.108;2023-11-19T00:41:17;21.30;;;3.30;;
69912;SDS011;57198;52.082;5.108;2023-11-19T00:43:53;19.73;;;3.28;;
69912;SDS011;57198;52.082;5.108;2023-11-19T00:46:28;17.77;;;3.25;;
69912;SDS011;57198;52.082;5.108;2023-11-19T00:49:03;27.27;;;4.85;;
69912;SDS011;57198;52.082;5.108;2023-11-19T00:51:34;19.92;;;4.13;;
69912;SDS011;57198;52.082;5.108;2023-11-19T00:54:06;23.93;;;4.00;;
69912;SDS011;57198;52.082;5.108;2023-11-19T00:56:41;24.00;;;3.92;;
69912;SDS011;57198;52.082;5.108;2023-11-19T00:59:18;26.45;;;3.42;;
69912;SDS011;57198;52.082;5.108;2023-11-19T01:02:08;18.55;;;4.18;;
69912;SDS011;57198;52.082;5.108;2023-11-19T01:04:37;30.00;;;4.10;;
69912;SDS011;57198;52.082;5.108;2023-11-19T01:07:12;22.10;;;3.60;;
69912;SDS011;57198;52.082;5.108;2023-11-19T01:09:43;26.38;;;4.13;;
69912;SDS011;57198;52.082;5.108;2023-11-19T01:12:26;22.40;;;3.88;;
69912;SDS011;57198;52.082;5.108;2023-11-19T01:15:06;27.67;;;4.03;;
69912;SDS011;57198;52.082;5.108;2023-11-19T01:17:37;25.95;;;3.40;;
69912;SDS011;57198;52.082;5.108;2023-11-19T01:20:14;23.50;;;3.40;;
69912;SDS011;57198;52.082;5.108;2023-11-19T01:22:43;28.55;;;4.47;;
69912;SDS011;57198;52.082;5.108;2023-11-19T01:25:12;27.02;;;4.95;;
69912;SDS011;57198;52.082;5.108;2023-11-19T01:27:43;35.05;;;5.50;;
69912;SDS011;57198;52.082;5.108;2023-11-19T01:30:14;28.65;;;4.10;;
69912;SDS011;57198;52.082;5.108;2023-11-19T01:32:56;21.60;;;4.10;;
69912;SDS011;57198;52.082;5.108;2023-11-19T01:35:28;24.02;;;4.10;;
69912;SDS011;57198;52.082;5.108;2023-11-19T01:37:59;26.65;;;4.05;;
69912;SDS011;57198;52.082;5.108;2023-11-19T01:40:29;23.13;;;4.05;;
69912;SDS011;57198;52.082;5.108;2023-11-19T01:42:58;26.33;;;5.20;;
69912;SDS011;57198;52.082;5.108;2023-11-19T01:45:27;24.23;;;3.83;;
69912;SDS011;57198;52.082;5.108;2023-11-19T01:48:03;35.28;;;4.82;;
69912;SDS011;57198;52.082;5.108;2023-11-19T01:50:42;28.35;;;4.22;;
69912;SDS011;57198;52.082;5.108;2023-11-19T01:53:12;24.42;;;4.47;;
69912;SDS011;57198;52.082;5.108;2023-11-19T01:55:49;33.30;;;4.50;;
69912;SDS011;57198;52.082;5.108;2023-11-19T01:58:21;22.60;;;4.70;;
69912;SDS011;57198;52.082;5.108;2023-11-19T02:00:49;38.30;;;5.10;;
69912;SDS011;57198;52.082;5.108;2023-11-19T02:03:19;27.90;;;4.63;;
69912;SDS011;57198;52.082;5.108;2023-11-19T02:05:48;37.00;;;4.97;;
69912;SDS011;57198;52.082;5.108;2023-11-19T02:08:18;33.58;;;5.40;;
69912;SDS011;57198;52.082;5.108;2023-11-19T02:10:49;43.13;;;5.47;;
69912;SDS011;57198;52.082;5.108;2023-11-19T02:13:18;32.20;;;4.45;;
69912;SDS011;57198;52.082;5.108;2023-11-19T02:15:56;32.60;;;5.90;;
69912;SDS011;57198;52.082;5.108;2023-11-19T02:18:25;40.75;;;5.38;;
69912;SDS011;57198;52.082;5.108;2023-11-19T02:20:58;35.55;;;5.45;;
69912;SDS011;57198;52.082;5.108;2023-11-19T02:23:26;36.17;;;5.23;;
69912;SDS011;57198;52.082;5.108;2023-11-19T02:28:34;26.98;;;4.35;;
69912;SDS011;57198;52.082;5.108;2023-11-19T02:31:04;24.15;;;4.03;;
69912;SDS011;57198;52.082;5.108;2023-11-19T02:33:38;32.90;;;6.03;;
69912;SDS011;57198;52.082;5.108;2023-11-19T02:36:12;42.27;;;5.50;;
69912;SDS011;57198;52.082;5.108;2023-11-19T02:38:44;32.15;;;5.72;;
69912;SDS011;57198;52.082;5.108;2023-11-19T02:41:21;29.42;;;4.88;;
69912;SDS011;57198;52.082;5.108;2023-11-19T02:44:00;40.15;;;5.30;;
69912;SDS011;57198;52.082;5.108;2023-11-19T02:46:30;37.30;;;5.65;;
69912;SDS011;57198;52.082;5.108;2023-11-19T02:49:01;28.73;;;5.53;;
69912;SDS011;57198;52.082;5.108;2023-11-19T02:51:31;30.65;;;5.35;;
69912;SDS011;57198;52.082;5.108;2023-11-19T02:54:07;30.92;;;5.55;;
69912;SDS011;57198;52.082;5.108;2023-11-19T02:56:36;35.33;;;5.82;;
69912;SDS011;57198;52.082;5.108;2023-11-19T02:59:20;38.72;;;5.25;;
69912;SDS011;57198;52.082;5.108;2023-11-19T03:01:55;37.97;;;4.77;;
69912;SDS011;57198;52.082;5.108;2023-11-19T03:04:23;43.80;;;6.43;;
69912;SDS011;57198;52.082;5.108;2023-11-19T03:06:51;34.13;;;5.40;;
69912;SDS011;57198;52.082;5.108;2023-11-19T03:09:20;33.50;;;5.18;;
69912;SDS011;57198;52.082;5.108;2023-11-19T03:11:49;32.22;;;4.60;;
69912;SDS011;57198;52.082;5.108;2023-11-19T03:14:18;26.67;;;4.83;;
69912;SDS011;57198;52.082;5.108;2023-11-19T03:16:55;35.17;;;5.45;;
69912;SDS011;57198;52.082;5.108;2023-11-19T03:19:23;42.40;;;6.13;;
69912;SDS011;57198;52.082;5.108;2023-11-19T03:21:57;38.85;;;5.63;;
69912;SDS011;57198;52.082;5.108;2023-11-19T03:24:31;44.20;;;5.72;;
69912;SDS011;57198;52.082;5.108;2023-11-19T03:27:00;42.07;;;6.17;;
69912;SDS011;57198;52.082;5.108;2023-11-19T03:29:29;34.63;;;5.57;;
69912;SDS011;57198;52.082;5.108;2023-11-19T03:31:59;34.08;;;4.70;;
69912;SDS011;57198;52.082;5.108;2023-11-19T03:34:31;29.55;;;4.82;;
69912;SDS011;57198;52.082;5.108;2023-11-19T03:36:59;38.00;;;5.82;;
69912;SDS011;57198;52.082;5.108;2023-11-19T03:39:28;34.67;;;5.77;;
69912;SDS011;57198;52.082;5.108;2023-11-19T03:41:59;25.40;;;4.80;;
69912;SDS011;57198;52.082;5.108;2023-11-19T03:44:28;31.58;;;5.20;;
69912;SDS011;57198;52.082;5.108;2023-11-19T03:46:56;32.10;;;5.28;;
69912;SDS011;57198;52.082;5.108;2023-11-19T03:49:26;35.30;;;5.53;;
69912;SDS011;57198;52.082;5.108;2023-11-19T03:51:55;46.43;;;6.80;;
69912;SDS011;57198;52.082;5.108;2023-11-19T03:54:34;35.05;;;5.45;;
69912;SDS011;57198;52.082;5.108;2023-11-19T03:57:06;34.63;;;5.68;;
69912;SDS011;57198;52.082;5.108;2023-11-19T03:59:33;37.10;;;6.07;;
69912;SDS011;57198;52.082;5.108;2023-11-19T04:02:03;27.23;;;5.13;;
69912;SDS011;57198;52.082;5.108;2023-11-19T04:04:32;33.15;;;4.80;;
69912;SDS011;57198;52.082;5.108;2023-11-19T04:07:01;39.53;;;5.82;;
69912;SDS011;57198;52.082;5.108;2023-11-19T04:09:33;41.13;;;6.28;;
69912;SDS011;57198;52.082;5.108;2023-11-19T04:12:02;29.50;;;4.80;;
69912;SDS011;57198;52.082;5.108;2023-11-19T04:14:34;30.17;;;5.45;;
69912;SDS011;57198;52.082;5.108;2023-11-19T04:17:03;36.43;;;5.57;;
69912;SDS011;57198;52.082;5.108;2023-11-19T04:19:31;36.38;;;4.93;;
69912;SDS011;57198;52.082;5.108;2023-11-19T04:22:01;34.30;;;6.32;;
69912;SDS011;57198;52.082;5.108;2023-11-19T04:24:31;35.47;;;5.68;;
69912;SDS011;57198;52.082;5.108;2023-11-19T04:27:02;38.40;;;5.50;;
69912;SDS011;57198;52.082;5.108;2023-11-19T04:29:31;36.67;;;4.70;;
69912;SDS011;57198;52.082;5.108;2023-11-19T04:32:00;42.25;;;5.70;;
69912;SDS011;57198;52.082;5.108;2023-11-19T04:34:42;37.42;;;5.40;;
69912;SDS011;57198;52.082;5.108;2023-11-19T04:37:11;40.10;;;5.78;;
69912;SDS011;57198;52.082;5.108;2023-11-19T04:39:40;48.30;;;7.10;;
69912;SDS011;57198;52.082;5.108;2023-11-19T04:42:11;31.63;;;5.37;;
69912;SDS011;57198;52.082;5.108;2023-11-19T04:44:40;42.33;;;5.63;;
69912;SDS011;57198;52.082;5.108;2023-11-19T04:47:20;36.72;;;5.80;;
69912;SDS011;57198;52.082;5.108;2023-11-19T04:49:48;43.17;;;5.65;;
69912;SDS011;57198;52.082;5.108;2023-11-19T04:52:17;33.28;;;5.85;;
69912;SDS011;57198;52.082;5.108;2023-11-19T04:54:48;29.90;;;4.60;;
69912;SDS011;57198;52.082;5.108;2023-11-19T04:57:17;32.72;;;6.35;;
69912;SDS011;57198;52.082;5.108;2023-11-19T04:59:45;33.53;;;5.40;;
69912;SDS011;57198;52.082;5.108;2023-11-19T05:02:15;29.80;;;5.07;;
69912;SDS011;57198;52.082;5.108;2023-11-19T05:04:47;32.70;;;5.78;;
69912;SDS011;57198;52.082;5.108;2023-11-19T05:07:18;32.33;;;5.43;;
69912;SDS011;57198;52.082;5.108;2023-11-19T05:09:47;35.40;;;5.18;;
69912;SDS011;57198;52.082;5.108;2023-11-19T05:12:15;38.28;;;6.00;;
69912;SDS011;57198;52.082;5.108;2023-11-19T05:14:43;32.17;;;4.93;;
69912;SDS011;57198;52.082;5.108;2023-11-19T05:17:17;41.65;;;5.57;;
69912;SDS011;57198;52.082;5.108;2023-11-19T05:19:46;33.00;;;4.83;;
69912;SDS011;57198;52.082;5.108;2023-11-19T05:22:14;33.60;;;4.88;;
69912;SDS011;57198;52.082;5.108;2023-11-19T05:24:44;35.78;;;4.95;;
69912;SDS011;57198;52.082;5.108;2023-11-19T05:27:17;37.15;;;4.97;;
69912;SDS011;57198;52.082;5.108;2023-11-19T05:29:48;34.10;;;5.78;;
69912;SDS011;57198;52.082;5.108;2023-11-19T05:32:17;33.43;;;5.63;;
69912;SDS011;57198;52.082;5.108;2023-11-19T05:34:49;40.08;;;5.75;;
69912;SDS011;57198;52.082;5.108;2023-11-19T05:37:20;28.38;;;4.15;;
69912;SDS011;57198;52.082;5.108;2023-11-19T05:39:49;47.20;;;5.75;;
69912;SDS011;57198;52.082;5.108;2023-11-19T05:42:25;36.35;;;4.95;;
69912;SDS011;57198;52.082;5.108;2023-11-19T05:44:58;33.38;;;5.75;;
69912;SDS011;57198;52.082;5.108;2023-11-19T05:47:27;33.70;;;4.70;;
69912;SDS011;57198;52.082;5.108;2023-11-19T05:50:00;41.67;;;6.22;;
69912;SDS011;57198;52.082;5.108;2023-11-19T05:52:34;35.70;;;5.50;;
69912;SDS011;57198;52.082;5.108;2023-11-19T05:55:14;34.83;;;4.97;;
69912;SDS011;57198;52.082;5.108;2023-11-19T05:57:41;49.03;;;6.80;;
69912;SDS011;57198;52.082;5.108;2023-11-19T06:00:18;41.05;;;5.60;;
69912;SDS011;57198;52.082;5.108;2023-11-19T06:02:47;30.45;;;5.32;;
69912;SDS011;57198;52.082;5.108;2023-11-19T06:05:21;35.75;;;6.15;;
69912;SDS011;57198;52.082;5.108;2023-11-19T06:08:02;39.47;;;6.05;;
69912;SDS011;57198;52.082;5.108;2023-11-19T06:10:34;32.93;;;5.43;;
69912;SDS011;57198;52.082;5.108;2023-11-19T06:13:05;36.55;;;5.43;;
69912;SDS011;57198;52.082;5.108;2023-11-19T06:15:34;31.52;;;4.63;;
69912;SDS011;57198;52.082;5.108;2023-11-19T06:18:08;39.03;;;6.15;;
69912;SDS011;57198;52.082;5.108;2023-11-19T06:20:41;43.13;;;5.88;;
69912;SDS011;57198;52.082;5.108;2023-11-19T06:23:12;33.23;;;5.33;;
69912;SDS011;57198;52.082;5.108;2023-11-19T06:25:41;32.58;;;5.68;;
69912;SDS011;57198;52.082;5.108;2023-11-19T06:28:13;28.90;;;4.28;;
69912;SDS011;57198;52.082;5.108;2023-11-19T06:30:45;33.38;;;4.72;;
69912;SDS011;57198;52.082;5.108;2023-11-19T06:33:20;37.53;;;6.13;;
69912;SDS011;57198;52.082;5.108;2023-11-19T06:35:55;42.97;;;5.67;;
69912;SDS011;57198;52.082;5.108;2023-11-19T06:38:24;41.30;;;5.93;;
69912;SDS011;57198;52.082;5.108;2023-11-19T06:41:07;35.38;;;5.28;;
69912;SDS011;57198;52.082;5.108;2023-11-19T06:43:37;37.28;;;5.05;;
69912;SDS011;57198;52.082;5.108;2023-11-19T06:46:16;29.65;;;4.40;;
69912;SDS011;57198;52.082;5.108;2023-11-19T06:48:44;39.57;;;5.37;;
69912;SDS011;57198;52.082;5.108;2023-11-19T06:51:12;35.67;;;4.85;;
69912;SDS011;57198;52.082;5.108;2023-11-19T06:53:43;38.08;;;5.72;;
69912;SDS011;57198;52.082;5.108;2023-11-19T06:56:26;36.03;;;5.13;;
69912;SDS011;57198;52.082;5.108;2023-11-19T06:59:01;35.40;;;6.03;;
69912;SDS011;57198;52.082;5.108;2023-11-19T07:01:34;31.50;;;5.13;;
69912;SDS011;57198;52.082;5.108;2023-11-19T07:04:04;31.27;;;4.65;;
69912;SDS011;57198;52.082;5.108;2023-11-19T07:06:35;33.35;;;5.93;;
69912;SDS011;57198;52.082;5.108;2023-11-19T07:09:03;35.50;;;4.63;;
69912;SDS011;57198;52.082;5.108;2023-11-19T07:11:36;26.63;;;4.50;;
69912;SDS011;57198;52.082;5.108;2023-11-19T07:14:05;33.63;;;4.93;;
69912;SDS011;57198;52.082;5.108;2023-11-19T07:16:33;35.03;;;5.63;;
69912;SDS011;57198;52.082;5.108;2023-11-19T07:19:07;31.58;;;5.57;;
69912;SDS011;57198;52.082;5.108;2023-11-19T07:21:34;28.65;;;5.30;;
69912;SDS011;57198;52.082;5.108;2023-11-19T07:24:05;30.98;;;5.38;;
69912;SDS011;57198;52.082;5.108;2023-11-19T07:26:33;31.63;;;5.90;;
69912;SDS011;57198;52.082;5.108;2023-11-19T07:29:00;36.15;;;5.88;;
69912;SDS011;57198;52.082;5.108;2023-11-19T07:31:28;33.70;;;5.10;;
69912;SDS011;57198;52.082;5.108;2023-11-19T07:33:55;32.40;;;4.93;;
69912;SDS011;57198;52.082;5.108;2023-11-19T07:36:23;31.70;;;4.65;;
69912;SDS011;57198;52.082;5.108;2023-11-19T07:38:50;22.47;;;4.83;;
69912;SDS011;57198;52.082;5.108;2023-11-19T07:41:17;39.28;;;6.53;;
69912;SDS011;57198;52.082;5.108;2023-11-19T07:43:46;34.33;;;5.72;;
69912;SDS011;57198;52.082;5.108;2023-11-19T07:46:13;35.92;;;5.15;;
69912;SDS011;57198;52.082;5.108;2023-11-19T07:48:41;33.40;;;5.07;;
69912;SDS011;57198;52.082;5.108;2023-11-19T07:51:10;26.00;;;5.40;;
69912;SDS011;57198;52.082;5.108;2023-11-19T07:53:38;35.50;;;5.57;;
69912;SDS011;57198;52.082;5.108;2023-11-19T07:56:07;30.50;;;4.50;;
69912;SDS011;57198;52.082;5.108;2023-11-19T07:58:35;36.83;;;5.85;;
69912;SDS011;57198;52.082;5.108;2023-11-19T08:01:03;34.55;;;5.07;;
69912;SDS011;57198;52.082;5.108;2023-11-19T08:03:30;43.13;;;5.90;;
69912;SDS011;57198;52.082;5.108;2023-11-19T08:05:58;34.35;;;4.72;;
69912;SDS011;57198;52.082;5.108;2023-11-19T08:08:25;31.75;;;4.95;;
69912;SDS011;57198;52.082;5.108;2023-11-19T08:10:53;33.40;;;5.82;;
69912;SDS011;57198;52.082;5.108;2023-11-19T08:13:26;38.25;;;5.85;;
69912;SDS011;57198;52.082;5.108;2023-11-19T08:15:53;35.10;;;5.87;;
69912;SDS011;57198;52.082;5.108;2023-11-19T08:18:21;29.52;;;5.03;;
69912;SDS011;57198;52.082;5.108;2023-11-19T08:20:48;40.67;;;5.55;;
69912;SDS011;57198;52.082;5.108;2023-11-19T08:23:22;34.42;;;5.50;;
69912;SDS011;57198;52.082;5.108;2023-11-19T08:25:51;24.73;;;4.47;;
69912;SDS011;57198;52.082;5.108;2023-11-19T08:28:19;30.67;;;5.07;;
69912;SDS011;57198;52.082;5.108;2023-11-19T08:30:46;25.55;;;4.95;;
69912;SDS011;57198;52.082;5.108;2023-11-19T08:33:14;24.13;;;4.80;;
69912;SDS011;57198;52.082;5.108;2023-11-19T08:35:41;28.95;;;4.78;;
69912;SDS011;57198;52.082;5.108;2023-11-19T08:38:08;32.63;;;5.35;;
69912;SDS011;57198;52.082;5.108;2023-11-19T08:40:36;28.57;;;4.80;;
69912;SDS011;57198;52.082;5.108;2023-11-19T08:43:05;32.08;;;5.78;;
69912;SDS011;57198;52.082;5.108;2023-11-19T08:45:33;35.40;;;5.63;;
69912;SDS011;57198;52.082;5.108;2023-11-19T08:48:00;29.73;;;5.28;;
69912;SDS011;57198;52.082;5.108;2023-11-19T08:50:28;27.80;;;4.50;;
69912;SDS011;57198;52.082;5.108;2023-11-19T08:52:55;28.10;;;5.37;;
69912;SDS011;57198;52.082;5.108;2023-11-19T08:55:22;34.67;;;5.25;;
69912;SDS011;57198;52.082;5.108;2023-11-19T08:57:50;37.88;;;6.38;;
69912;SDS011;57198;52.082;5.108;2023-11-19T09:00:17;31.10;;;5.05;;
69912;SDS011;57198;52.082;5.108;2023-11-19T09:02:44;30.58;;;4.97;;
69912;SDS011;57198;52.082;5.108;2023-11-19T09:05:12;32.77;;;5.20;;
69912;SDS011;57198;52.082;5.108;2023-11-19T09:07:39;37.30;;;5.30;;
69912;SDS011;57198;52.082;5.108;2023-11-19T09:10:07;30.73;;;5.28;;
69912;SDS011;57198;52.082;5.108;2023-11-19T09:12:35;29.60;;;5.20;;
69912;SDS011;57198;52.082;5.108;2023-11-19T09:15:02;21.67;;;4.63;;
69912;SDS011;57198;52.082;5.108;2023-11-19T09:17:30;22.47;;;4.73;;
69912;SDS011;57198;52.082;5.108;2023-11-19T09:19:57;37.92;;;4.97;;
69912;SDS011;57198;52.082;5.108;2023-11-19T09:22:25;40.22;;;5.28;;
69912;SDS011;57198;52.082;5.108;2023-11-19T09:24:52;25.17;;;4.38;;
69912;SDS011;57198;52.082;5.108;2023-11-19T09:27:19;33.38;;;4.95;;
69912;SDS011;57198;52.082;5.108;2023-11-19T09:29:47;33.03;;;5.13;;
69912;SDS011;57198;52.082;5.108;2023-11-19T09:32:16;30.48;;;5.63;;
69912;SDS011;57198;52.082;5.108;2023-11-19T09:34:43;28.48;;;5.35;;
69912;SDS011;57198;52.082;5.108;2023-11-19T09:37:10;27.90;;;4.47;;
69912;SDS011;57198;52.082;5.108;2023-11-19T09:39:41;29.40;;;5.95;;
69912;SDS011;57198;52.082;5.108;2023-11-19T09:42:09;32.67;;;5.93;;
69912;SDS011;57198;52.082;5.108;2023-11-19T09:44:37;37.08;;;6.03;;
69912;SDS011;57198;52.082;5.108;2023-11-19T09:47:06;34.85;;;4.93;;
69912;SDS011;57198;52.082;5.108;2023-11-19T09:49:33;34.30;;;6.65;;
69912;SDS011;57198;52.082;5.108;2023-11-19T09:52:02;39.28;;;5.60;;
69912;SDS011;57198;52.082;5.108;2023-11-19T09:54:30;30.57;;;5.07;;
69912;SDS011;57198;52.082;5.108;2023-11-19T09:56:58;33.10;;;5.50;;
69912;SDS011;57198;52.082;5.108;2023-11-19T09:59:30;25.33;;;4.30;;
69912;SDS011;57198;52.082;5.108;2023-11-19T10:01:58;30.73;;;4.88;;
69912;SDS011;57198;52.082;5.108;2023-11-19T10:04:26;25.83;;;4.85;;
69912;SDS011;57198;52.082;5.108;2023-11-19T10:06:57;23.17;;;5.00;;
69912;SDS011;57198;52.082;5.108;2023-11-19T10:09:24;26.38;;;4.60;;
69912;SDS011;57198;52.082;5.108;2023-11-19T10:11:51;28.98;;;5.35;;
69912;SDS011;57198;52.082;5.108;2023-11-19T10:14:20;25.50;;;5.30;;
69912;SDS011;57198;52.082;5.108;2023-11-19T10:16:50;25.13;;;5.05;;
69912;SDS011;57198;52.082;5.108;2023-11-19T10:19:20;28.87;;;4.50;;
69912;SDS011;57198;52.082;5.108;2023-11-19T10:21:48;27.40;;;5.10;;
69912;SDS011;57198;52.082;5.108;2023-11-19T10:24:15;18.33;;;3.92;;
69912;SDS011;57198;52.082;5.108;2023-11-19T10:26:45;23.23;;;4.75;;
69912;SDS011;57198;52.082;5.108;2023-11-19T10:29:13;25.65;;;4.60;;
69912;SDS011;57198;52.082;5.108;2023-11-19T10:31:41;22.03;;;4.97;;
69912;SDS011;57198;52.082;5.108;2023-11-19T10:34:25;32.67;;;5.43;;
69912;SDS011;57198;52.082;5.108;2023-11-19T10:36:53;23.90;;;3.67;;
69912;SDS011;57198;52.082;5.108;2023-11-19T10:39:20;22.25;;;4.38;;
69912;SDS011;57198;52.082;5.108;2023-11-19T10:41:50;25.08;;;5.10;;
69912;SDS011;57198;52.082;5.108;2023-11-19T10:44:34;23.27;;;4.53;;
69912;SDS011;57198;52.082;5.108;2023-11-19T10:47:03;22.35;;;4.53;;
69912;SDS011;57198;52.082;5.108;2023-11-19T10:49:32;20.80;;;4.22;;
69912;SDS011;57198;52.082;5.108;2023-11-19T10:52:01;27.17;;;5.95;;
69912;SDS011;57198;52.082;5.108;2023-11-19T10:54:29;23.73;;;5.07;;
69912;SDS011;57198;52.082;5.108;2023-11-19T10:57:01;23.73;;;4.93;;
69912;SDS011;57198;52.082;5.108;2023-11-19T10:59:29;23.02;;;4.55;;
69912;SDS011;57198;52.082;5.108;2023-11-19T11:02:00;22.35;;;3.90;;
69912;SDS011;57198;52.082;5.108;2023-11-19T11:04:32;29.30;;;4.75;;
69912;SDS011;57198;52.082;5.108;2023-11-19T11:07:01;24.45;;;4.45;;
69912;SDS011;57198;52.082;5.108;2023-11-19T11:09:28;17.03;;;4.30;;
69912;SDS011;57198;52.082;5.108;2023-11-19T11:11:57;23.17;;;4.53;;
69912;SDS011;57198;52.082;5.108;2023-11-19T11:14:25;25.13;;;4.13;;
69912;SDS011;57198;52.082;5.108;2023-11-19T11:16:54;27.10;;;4.72;;
69912;SDS011;57198;52.082;5.108;2023-11-19T11:19:23;27.05;;;5.00;;
69912;SDS011;57198;52.082;5.108;2023-11-19T11:21:51;22.23;;;4.27;;
69912;SDS011;57198;52.082;5.108;2023-11-19T11:24:30;31.10;;;4.80;;
69912;SDS011;57198;52.082;5.108;2023-11-19T11:27:12;22.75;;;3.92;;
69912;SDS011;57198;52.082;5.108;2023-11-19T11:32:50;32.22;;;5.07;;
69912;SDS011;57198;52.082;5.108;2023-11-19T11:37:49;25.15;;;4.30;;
69912;SDS011;57198;52.082;5.108;2023-11-19T11:40:18;31.52;;;5.13;;
69912;SDS011;57198;52.082;5.108;2023-11-19T11:42:45;34.47;;;5.15;;
69912;SDS011;57198;52.082;5.108;2023-11-19T11:45:14;26.63;;;4.85;;
69912;SDS011;57198;52.082;5.108;2023-11-19T11:50:10;24.75;;;4.30;;
69912;SDS011;57198;52.082;5.108;2023-11-19T11:53:22;23.38;;;5.00;;
69912;SDS011;57198;52.082;5.108;2023-11-19T11:55:36;25.25;;;4.57;;
69912;SDS011;57198;52.082;5.108;2023-11-19T11:58:05;20.83;;;3.65;;
69912;SDS011;57198;52.082;5.108;2023-11-19T12:00:32;23.00;;;5.33;;
69912;SDS011;57198;52.082;5.108;2023-11-19T12:03:00;23.98;;;4.30;;
69912;SDS011;57198;52.082;5.108;2023-11-19T12:05:28;22.70;;;5.35;;
69912;SDS011;57198;52.082;5.108;2023-11-19T12:07:57;21.70;;;4.90;;
69912;SDS011;57198;52.082;5.108;2023-11-19T12:10:25;21.25;;;4.50;;
69912;SDS011;57198;52.082;5.108;2023-11-19T12:12:58;20.77;;;3.53;;
69912;SDS011;57198;52.082;5.108;2023-11-19T12:15:26;17.15;;;3.85;;
69912;SDS011;57198;52.082;5.108;2023-11-19T12:17:54;17.88;;;3.45;;
69912;SDS011;57198;52.082;5.108;2023-11-19T12:20:22;22.92;;;3.42;;
69912;SDS011;57198;52.082;5.108;2023-11-19T12:22:53;19.85;;;4.07;;
69912;SDS011;57198;52.082;5.108;2023-11-19T12:25:21;22.83;;;4.73;;
69912;SDS011;57198;52.082;5.108;2023-11-19T12:27:50;21.23;;;3.47;;
69912;SDS011;57198;52.082;5.108;2023-11-19T12:32:49;21.63;;;3.58;;
69912;SDS011;57198;52.082;5.108;2023-11-19T12:35:16;22.58;;;3.92;;
69912;SDS011;57198;52.082;5.108;2023-11-19T12:37:44;25.40;;;3.87;;
69912;SDS011;57198;52.082;5.108;2023-11-19T12:40:19;21.80;;;3.58;;
69912;SDS011;57198;52.082;5.108;2023-11-19T12:42:47;23.60;;;3.42;;
69912;SDS011;57198;52.082;5.108;2023-11-19T12:45:15;28.33;;;4.03;;
69912;SDS011;57198;52.082;5.108;2023-11-19T12:47:43;27.83;;;4.22;;
69912;SDS011;57198;52.082;5.108;2023-11-19T12:50:13;25.27;;;4.63;;
69912;SDS011;57198;52.082;5.108;2023-11-19T12:52:42;31.15;;;4.30;;
69912;SDS011;57198;52.082;5.108;2023-11-19T12:55:28;18.02;;;3.80;;
69912;SDS011;57198;52.082;5.108;2023-11-19T12:57:57;21.67;;;4.35;;
69912;SDS011;57198;52.082;5.108;2023-11-19T13:00:26;14.85;;;2.63;;
69912;SDS011;57198;52.082;5.108;2023-11-19T13:02:55;22.83;;;3.43;;
69912;SDS011;57198;52.082;5.108;2023-11-19T13:05:32;33.05;;;4.78;;
69912;SDS011;57198;52.082;5.108;2023-11-19T13:08:04;23.52;;;3.97;;
69912;SDS011;57198;52.082;5.108;2023-11-19T13:10:32;27.08;;;4.20;;
69912;SDS011;57198;52.082;5.108;2023-11-19T13:13:06;24.48;;;3.83;;
69912;SDS011;57198;52.082;5.108;2023-11-19T13:15:37;27.73;;;5.70;;
69912;SDS011;57198;52.082;5.108;2023-11-19T13:18:04;17.67;;;3.70;;
69912;SDS011;57198;52.082;5.108;2023-11-19T13:20:33;24.20;;;4.15;;
69912;SDS011;57198;52.082;5.108;2023-11-19T13:23:01;25.00;;;4.80;;
69912;SDS011;57198;52.082;5.108;2023-11-19T13:25:29;24.25;;;4.68;;
69912;SDS011;57198;52.082;5.108;2023-11-19T13:27:59;30.07;;;5.13;;
69912;SDS011;57198;52.082;5.108;2023-11-19T13:30:27;24.75;;;4.45;;
69912;SDS011;57198;52.082;5.108;2023-11-19T13:32:55;20.50;;;3.80;;
69912;SDS011;57198;52.082;5.108;2023-11-19T13:35:23;15.13;;;3.30;;
69912;SDS011;57198;52.082;5.108;2023-11-19T13:37:52;23.48;;;4.93;;
69912;SDS011;57198;52.082;5.108;2023-11-19T13:40:21;20.27;;;3.80;;
69912;SDS011;57198;52.082;5.108;2023-11-19T13:42:51;25.85;;;4.28;;
69912;SDS011;57198;52.082;5.108;2023-11-19T13:45:21;22.20;;;4.43;;
69912;SDS011;57198;52.082;5.108;2023-11-19T13:47:56;19.73;;;3.97;;
69912;SDS011;57198;52.082;5.108;2023-11-19T13:50:25;30.13;;;4.22;;
69912;SDS011;57198;52.082;5.108;2023-11-19T13:52:56;21.70;;;3.97;;
69912;SDS011;57198;52.082;5.108;2023-11-19T13:55:25;20.63;;;3.83;;
69912;SDS011;57198;52.082;5.108;2023-11-19T13:57:56;20.92;;;4.25;;
69912;SDS011;57198;52.082;5.108;2023-11-19T14:00:24;21.45;;;3.60;;
69912;SDS011;57198;52.082;5.108;2023-11-19T14:02:51;22.58;;;3.15;;
69912;SDS011;57198;52.082;5.108;2023-11-19T14:05:19;24.67;;;3.57;;
69912;SDS011;57198;52.082;5.108;2023-11-19T14:07:49;32.38;;;4.28;;
69912;SDS011;57198;52.082;5.108;2023-11-19T14:10:17;23.73;;;3.95;;
69912;SDS011;57198;52.082;5.108;2023-11-19T14:12:45;24.02;;;4.25;;
69912;SDS011;57198;52.082;5.108;2023-11-19T14:15:12;21.38;;;3.22;;
69912;SDS011;57198;52.082;5.108;2023-11-19T14:17:40;26.17;;;4.37;;
69912;SDS011;57198;52.082;5.108;2023-11-19T14:20:07;21.75;;;4.63;;
69912;SDS011;57198;52.082;5.108;2023-11-19T14:22:42;25.38;;;4.65;;
69912;SDS011;57198;52.082;5.108;2023-11-19T14:25:10;22.25;;;3.80;;
69912;SDS011;57198;52.082;5.108;2023-11-19T14:27:38;17.60;;;3.10;;
69912;SDS011;57198;52.082;5.108;2023-11-19T14:30:06;26.00;;;3.80;;
69912;SDS011;57198;52.082;5.108;2023-11-19T14:32:35;28.65;;;4.32;;
69912;SDS011;57198;52.082;5.108;2023-11-19T14:35:03;23.48;;;3.78;;
69912;SDS011;57198;52.082;5.108;2023-11-19T14:37:30;25.10;;;4.68;;
69912;SDS011;57198;52.082;5.108;2023-11-19T14:39:58;23.55;;;4.10;;
69912;SDS011;57198;52.082;5.108;2023-11-19T14:42:25;30.37;;;4.27;;
69912;SDS011;57198;52.082;5.108;2023-11-19T14:44:53;23.85;;;3.70;;
69912;SDS011;57198;52.082;5.108;2023-11-19T14:47:21;30.58;;;3.45;;
69912;SDS011;57198;52.082;5.108;2023-11-19T14:49:49;24.35;;;3.92;;
69912;SDS011;57198;52.082;5.108;2023-11-19T14:52:16;31.10;;;5.03;;
69912;SDS011;57198;52.082;5.108;2023-11-19T14:54:43;29.47;;;4.70;;
69912;SDS011;57198;52.082;5.108;2023-11-19T14:57:11;32.25;;;5.18;;
69912;SDS011;57198;52.082;5.108;2023-11-19T14:59:40;31.10;;;4.55;;
69912;SDS011;57198;52.082;5.108;2023-11-19T15:02:07;32.60;;;4.35;;
69912;SDS011;57198;52.082;5.108;2023-11-19T15:04:35;30.75;;;4.68;;
69912;SDS011;57198;52.082;5.108;2023-11-19T15:07:02;25.43;;;4.03;;